Watertown, TN

6:00 PM CDT on March 31, 2015 (GMT -0500)
Tullahoma Regional-Northern | | Change Station
CLOSE
Current Station
Airport
Location: Tullahoma,
Elevation: 1083 ft
Nearby Weather Stations

Elev 1083 ft 35.38 °N, 86.25 °W | Updated 5 minutes ago

Clear
Clear
75 °F
Feels Like 75 °F
N
8
Wind Variable Wind from WNW

Today
High -- | Low -- °F
--% Chance of Precip.
Yesterday
High -- | Low -- °F
Precip. -- in
6:32 AM 7:05 PM
Waxing Gibbous, 89% visible
Pressure 29.91 in
Visibility 10.0 miles
Clouds Few 8000 ft
Dew Point 43 °F
Humidity 31%
Rainfall 0.00 in
Snow Depth Not available.
UV 1 out of 12
Pollen 10.10 out of 12
Air Quality Not available.
Flu Activity Not available.
METAR KTHA 312255Z AUTO 29007KT 10SM FEW080 24/06 A2991 RMK

More Conditions Fewer Conditions

Pressure 29.91 in
Visibility 10.0 miles
Clouds Few 8000 ft
Dew Point 43 °F
Humidity 31%
Rainfall 0.00 in
Snow Depth Not available.
UV 1 out of 12
Pollen 10.10 out of 12
Air Quality Not available.
Flu Activity Not available.
METAR KTHA 312255Z AUTO 29007KT 10SM FEW080 24/06 A2991 RMK

More Conditions Fewer Conditions

10-Day Weather Forecast

Almanac

Astronomy

Mar. 31, 2015 Rise Set
Actual Time
Civil Twilight
Nautical Twilight
Astronomical Twilight
Moon
Length of Visible Light
Length of Day
Tomorrow will be .
, % of the Moon is Illuminated

Today's Extremes

State Highs State Lows

Community

WunderPhotos

Upload Photos

1,809,870 photos uploaded!

WunderBlogs® & News

Nearby

Air Quality

  Air Quality AQ Index Pollutant
Not available.

Snow Depth

Station Depth Elevation

Earthquake Activity

City Distance Mag. Time & Date
Minimum magnitude displayed is 2.5.

Coastal Water Temperatures

Place Temperature

Stations

Nearby Weather Stations

Station Location Temp. Windchill Dew Point Humidity Wind Precip. Elev Updated Type